Time;durP1;ratioP1;P1;durP2;ratioP2;P2;SDS_P1;SDS_P2;PMS_P1;PMS_P2;Temp;Humidity;BMP_temperature;BMP_pressure;BME280_temperature;BME280_humidity;BME280_pressure;Samples;Min_cycle;Max_cycle;Signal;HPM_P1;HPM_P2
2022/07/22 00:00:00;;;;;;;2.17;1.17;;;18.50;99.90;;;;;;5058460;28;20249;-60
2022/07/22 00:02:32;;;;;;;2.40;1.10;;;18.50;99.90;;;;;;5059210;28;20240;-61
2022/07/22 00:05:00;;;;;;;1.93;1.07;;;18.50;99.90;;;;;;5059595;28;20226;-59
2022/07/22 00:07:28;;;;;;;1.60;1.23;;;18.50;99.90;;;;;;5059424;28;20222;-60
2022/07/22 00:09:56;;;;;;;2.50;1.10;;;18.40;99.90;;;;;;5059095;28;20258;-60
2022/07/22 00:12:25;;;;;;;2.80;0.90;;;18.50;99.90;;;;;;5059820;28;20321;-61
2022/07/22 00:14:53;;;;;;;2.00;1.00;;;18.30;99.90;;;;;;5059457;28;20331;-60
2022/07/22 00:17:22;;;;;;;1.90;1.00;;;18.40;99.90;;;;;;5059140;28;20584;-60
2022/07/22 00:19:50;;;;;;;2.57;1.63;;;18.30;99.90;;;;;;5060146;28;20257;-60
2022/07/22 00:22:18;;;;;;;1.43;1.10;;;18.30;99.90;;;;;;5064280;28;20253;-61
2022/07/22 00:24:48;;;;;;;1.50;1.03;;;18.20;99.90;;;;;;5064613;28;20226;-61
2022/07/22 00:27:16;;;;;;;2.30;1.30;;;18.20;99.90;;;;;;5068004;28;20225;-67
2022/07/22 00:29:44;;;;;;;4.10;1.63;;;18.10;99.90;;;;;;5065705;28;20321;-65
2022/07/22 00:32:12;;;;;;;1.57;1.10;;;18.20;99.90;;;;;;5065280;28;20768;-61
2022/07/22 00:34:41;;;;;;;6.40;1.80;;;18.20;99.90;;;;;;5064820;28;20309;-66
2022/07/22 00:37:09;;;;;;;2.07;1.30;;;18.20;99.90;;;;;;5065769;28;20223;-62
2022/07/22 00:39:38;;;;;;;4.93;1.50;;;18.20;99.90;;;;;;5065621;28;20260;-60
2022/07/22 00:42:06;;;;;;;4.20;1.70;;;18.10;99.90;;;;;;5067069;28;20604;-67
2022/07/22 00:44:36;;;;;;;3.50;1.50;;;18.20;99.90;;;;;;5072158;28;20233;-58
2022/07/22 00:47:05;;;;;;;2.43;1.27;;;18.10;99.90;;;;;;5058466;28;20222;-59
2022/07/22 00:49:34;;;;;;;3.43;1.80;;;18.10;99.90;;;;;;5056793;28;20306;-60
2022/07/22 00:52:04;;;;;;;2.50;1.70;;;18.10;99.90;;;;;;5056114;28;20264;-59
2022/07/22 00:54:32;;;;;;;3.23;2.00;;;18.10;99.90;;;;;;5055544;28;20229;-58
2022/07/22 00:57:00;;;;;;;4.37;2.43;;;18.00;99.90;;;;;;5055835;28;20258;-59
2022/07/22 00:59:28;;;;;;;4.53;2.17;;;18.10;99.90;;;;;;5056588;28;20220;-58
2022/07/22 01:01:57;;;;;;;4.07;2.13;;;18.00;99.90;;;;;;5056314;28;20586;-59
2022/07/22 01:04:25;;;;;;;6.20;2.23;;;18.00;99.90;;;;;;5054471;28;20299;-58
2022/07/22 01:06:53;;;;;;;4.17;2.37;;;18.00;99.90;;;;;;5055841;28;20277;-59
2022/07/22 01:09:23;;;;;;;3.03;2.27;;;18.00;99.90;;;;;;5055141;28;20222;-59
2022/07/22 01:11:51;;;;;;;4.33;3.47;;;18.00;99.90;;;;;;5070009;28;20232;-58
2022/07/22 01:14:20;;;;;;;4.83;3.03;;;18.00;99.90;;;;;;5069394;28;20252;-58
2022/07/22 01:16:48;;;;;;;3.57;2.63;;;18.00;99.90;;;;;;5054744;28;20229;-59
2022/07/22 01:19:17;;;;;;;4.50;3.07;;;17.90;99.90;;;;;;5055639;28;20228;-59
2022/07/22 01:21:46;;;;;;;5.60;3.10;;;17.90;99.90;;;;;;5054738;28;20766;-59
2022/07/22 01:24:15;;;;;;;3.80;3.07;;;17.80;99.90;;;;;;5054860;28;20744;-59
2022/07/22 01:26:43;;;;;;;4.63;2.77;;;17.90;99.90;;;;;;5052997;28;20233;-59
2022/07/22 01:29:11;;;;;;;5.47;2.67;;;17.80;99.90;;;;;;5058936;28;20218;-59
2022/07/22 01:31:40;;;;;;;5.00;2.70;;;17.90;99.90;;;;;;5052328;28;20236;-59
2022/07/22 01:34:08;;;;;;;6.47;3.10;;;17.90;99.90;;;;;;5053796;28;20220;-58
2022/07/22 01:36:37;;;;;;;5.47;3.20;;;17.90;99.90;;;;;;5053538;28;20252;-58
2022/07/22 01:39:06;;;;;;;3.90;3.00;;;17.80;99.90;;;;;;5053142;28;20312;-59
2022/07/22 01:41:35;;;;;;;3.40;2.40;;;17.90;99.90;;;;;;5053068;28;20229;-58
2022/07/22 01:44:03;;;;;;;4.93;3.10;;;17.80;99.90;;;;;;5053598;28;20228;-59
2022/07/22 01:46:32;;;;;;;5.47;2.87;;;17.80;99.90;;;;;;5053036;28;20230;-58
2022/07/22 01:49:00;;;;;;;5.30;2.63;;;17.80;99.90;;;;;;5053270;28;20233;-59
2022/07/22 01:51:33;;;;;;;5.07;2.80;;;17.80;99.90;;;;;;5053027;28;20327;-58
2022/07/22 01:54:01;;;;;;;5.87;2.70;;;17.80;99.90;;;;;;5054310;28;20613;-58
2022/07/22 01:56:31;;;;;;;5.60;3.43;;;17.80;99.90;;;;;;5053873;28;20236;-58
2022/07/22 01:58:59;;;;;;;5.17;3.03;;;17.90;99.90;;;;;;5054454;28;20225;-59
2022/07/22 02:01:29;;;;;;;5.63;3.10;;;17.80;99.90;;;;;;5052462;28;20290;-58
2022/07/22 02:03:57;;;;;;;5.97;3.10;;;17.80;99.90;;;;;;5054197;28;20231;-58
2022/07/22 02:06:25;;;;;;;6.63;2.90;;;17.80;99.90;;;;;;5052547;28;20232;-58
2022/07/22 02:08:56;;;;;;;5.30;3.10;;;17.80;99.90;;;;;;5052847;28;20259;-58
2022/07/22 02:11:40;;;;;;;6.87;3.10;;;17.80;99.90;;;;;;5052834;28;20279;-58
2022/07/22 02:14:09;;;;;;;6.80;2.87;;;17.70;99.90;;;;;;5053225;28;20232;-58
2022/07/22 02:16:37;;;;;;;6.83;2.90;;;17.70;99.90;;;;;;5052523;28;20259;-58
2022/07/22 02:19:06;;;;;;;4.07;2.30;;;17.70;99.90;;;;;;5053811;28;20257;-59
2022/07/22 02:21:35;;;;;;;4.97;3.00;;;17.70;99.90;;;;;;5054148;28;20627;-58
2022/07/22 02:24:03;;;;;;;7.50;2.93;;;17.60;99.90;;;;;;5054138;28;20224;-58
2022/07/22 02:26:31;;;;;;;5.63;2.60;;;17.60;99.90;;;;;;5053309;28;20232;-59
2022/07/22 02:29:01;;;;;;;12.27;2.90;;;17.60;99.90;;;;;;5055076;28;20581;-58
2022/07/22 02:31:30;;;;;;;5.70;2.80;;;17.60;99.90;;;;;;5051772;28;20230;-59
2022/07/22 02:33:58;;;;;;;6.73;2.70;;;17.50;99.90;;;;;;5051771;28;20233;-58
2022/07/22 02:36:29;;;;;;;5.37;2.50;;;17.50;99.90;;;;;;5050852;28;20275;-59
2022/07/22 02:38:58;;;;;;;5.83;2.53;;;17.50;99.90;;;;;;5052566;28;20228;-59
2022/07/22 02:41:27;;;;;;;6.30;2.43;;;17.60;99.90;;;;;;5052567;28;20269;-59
2022/07/22 02:43:57;;;;;;;8.60;2.60;;;17.60;99.90;;;;;;5052170;28;20233;-59
2022/07/22 02:46:28;;;;;;;6.93;2.37;;;17.60;99.90;;;;;;5051828;28;20724;-58
2022/07/22 02:48:59;;;;;;;4.67;2.30;;;17.60;99.90;;;;;;5052131;28;20230;-58
2022/07/22 02:51:29;;;;;;;5.77;2.30;;;17.50;99.90;;;;;;5052200;28;20256;-58
2022/07/22 02:53:57;;;;;;;5.40;2.27;;;17.50;99.90;;;;;;5052080;28;20273;-59
2022/07/22 02:56:26;;;;;;;5.37;2.40;;;17.50;99.90;;;;;;5052416;28;20224;-58
2022/07/22 02:58:54;;;;;;;7.40;3.03;;;17.50;99.90;;;;;;5070442;28;20263;-58
2022/07/22 03:01:23;;;;;;;3.33;2.37;;;17.50;99.90;;;;;;5051029;28;21025;-59
2022/07/22 03:03:57;;;;;;;7.20;2.77;;;17.50;99.90;;;;;;5085513;28;20256;-58
2022/07/22 03:06:27;;;;;;;6.30;2.37;;;17.50;99.90;;;;;;5051513;28;20228;-58
2022/07/22 03:09:00;;;;;;;5.43;2.23;;;17.50;99.90;;;;;;5050185;28;20229;-58
2022/07/22 03:11:30;;;;;;;4.10;2.40;;;17.50;99.90;;;;;;5051455;28;20267;-58
2022/07/22 03:13:59;;;;;;;5.93;2.20;;;17.50;99.90;;;;;;5051779;28;20238;-59
2022/07/22 03:16:27;;;;;;;4.53;2.30;;;17.50;99.90;;;;;;5051617;28;20308;-58
2022/07/22 03:18:58;;;;;;;4.30;2.70;;;17.50;99.90;;;;;;5051117;28;20406;-59
2022/07/22 03:21:27;;;;;;;6.07;2.40;;;17.40;99.90;;;;;;5051655;28;20235;-58
2022/07/22 03:23:55;;;;;;;7.43;2.47;;;17.40;99.90;;;;;;5051654;28;20247;-58
2022/07/22 03:26:24;;;;;;;8.07;2.83;;;17.30;99.90;;;;;;5085232;28;20225;-58
2022/07/22 03:28:52;;;;;;;7.07;2.70;;;17.30;99.90;;;;;;5052800;28;20383;-59
2022/07/22 03:31:21;;;;;;;4.97;2.47;;;17.20;99.90;;;;;;5050880;28;20232;-59
2022/07/22 03:33:50;;;;;;;6.53;2.63;;;17.20;99.90;;;;;;5051788;28;20235;-59
2022/07/22 03:36:21;;;;;;;6.73;2.40;;;17.20;99.90;;;;;;5051529;28;20224;-58
2022/07/22 03:38:52;;;;;;;5.93;2.40;;;17.10;99.90;;;;;;5051474;28;20232;-58
2022/07/22 03:41:21;;;;;;;5.70;2.50;;;17.10;99.90;;;;;;5056300;28;20282;-58
2022/07/22 03:43:49;;;;;;;4.70;2.40;;;17.10;99.90;;;;;;5040780;28;20208;-59
2022/07/22 03:46:19;;;;;;;7.10;2.77;;;17.10;99.90;;;;;;5049389;28;20265;-59
2022/07/22 03:48:47;;;;;;;6.57;2.90;;;17.20;99.90;;;;;;5051093;28;20753;-58
2022/07/22 03:51:15;;;;;;;4.60;2.50;;;17.20;99.90;;;;;;5051474;28;20298;-58
2022/07/22 03:53:46;;;;;;;5.77;2.33;;;17.20;99.90;;;;;;5051016;28;20232;-59
2022/07/22 03:56:14;;;;;;;6.63;2.30;;;17.30;99.90;;;;;;5053048;28;20223;-58
2022/07/22 03:58:42;;;;;;;4.90;2.30;;;17.20;99.90;;;;;;5051040;28;20282;-59
2022/07/22 04:01:10;;;;;;;6.00;2.50;;;17.20;99.90;;;;;;5050546;28;20706;-59
2022/07/22 04:03:41;;;;;;;3.60;2.23;;;17.10;99.90;;;;;;5050872;28;20250;-59
2022/07/22 04:06:35;;;;;;;7.70;2.87;;;17.20;99.90;;;;;;5049484;28;20719;-58
2022/07/22 04:09:18;;;;;;;7.80;2.83;;;17.20;99.90;;;;;;5048094;28;20231;-58
2022/07/22 04:11:46;;;;;;;7.43;2.80;;;17.20;99.90;;;;;;5051753;28;20294;-57
2022/07/22 04:14:15;;;;;;;5.73;2.73;;;17.20;99.90;;;;;;5051828;28;20224;-58
2022/07/22 04:16:45;;;;;;;5.17;2.43;;;17.10;99.90;;;;;;5050373;28;20231;-59
2022/07/22 04:19:15;;;;;;;7.30;2.50;;;17.00;99.90;;;;;;5048271;28;20236;-58
2022/07/22 04:21:52;;;;;;;6.63;2.90;;;17.10;99.90;;;;;;5048137;28;20236;-58
2022/07/22 04:24:24;;;;;;;8.03;3.00;;;17.10;99.90;;;;;;5049934;28;20228;-59
2022/07/22 04:26:52;;;;;;;7.83;2.93;;;17.10;99.90;;;;;;5048295;28;20629;-57
2022/07/22 04:29:20;;;;;;;6.77;3.60;;;17.10;99.90;;;;;;5052200;28;20303;-59
2022/07/22 04:31:48;;;;;;;8.33;3.77;;;17.10;99.90;;;;;;5053742;28;20228;-59
2022/07/22 04:34:19;;;;;;;8.37;3.20;;;17.10;99.90;;;;;;5053955;28;20228;-60
2022/07/22 04:36:49;;;;;;;8.13;3.30;;;17.10;99.90;;;;;;5054266;28;20220;-59
2022/07/22 04:39:18;;;;;;;9.67;3.10;;;17.10;99.90;;;;;;5053858;28;20618;-59
2022/07/22 04:41:56;;;;;;;7.80;2.97;;;17.20;99.90;;;;;;5052337;28;20238;-59
2022/07/22 04:44:24;;;;;;;9.00;3.40;;;17.10;99.90;;;;;;5053750;28;20603;-59
2022/07/22 04:46:52;;;;;;;4.80;2.77;;;17.20;99.90;;;;;;5051999;28;20700;-59
2022/07/22 04:49:21;;;;;;;6.63;2.97;;;17.30;99.90;;;;;;5053909;28;20278;-59
2022/07/22 04:51:49;;;;;;;7.20;2.97;;;17.30;99.90;;;;;;5055464;28;20264;-59
2022/07/22 04:54:27;;;;;;;5.10;2.70;;;17.40;99.90;;;;;;5053976;28;20315;-59
2022/07/22 04:57:00;;;;;;;6.20;3.00;;;17.40;99.90;;;;;;5053121;28;20235;-59
2022/07/22 04:59:28;;;;;;;9.90;3.70;;;17.40;99.90;;;;;;5053901;28;20231;-59
2022/07/22 05:01:56;;;;;;;5.37;2.80;;;17.50;99.90;;;;;;5053705;28;20328;-59
2022/07/22 05:04:25;;;;;;;6.60;2.70;;;17.50;99.90;;;;;;5054166;28;20224;-59
2022/07/22 05:06:53;;;;;;;6.97;2.53;;;17.60;99.90;;;;;;5050815;28;20271;-59
2022/07/22 05:09:22;;;;;;;7.40;2.70;;;17.60;99.90;;;;;;5052725;28;20277;-59
2022/07/22 05:11:50;;;;;;;8.33;3.07;;;17.60;99.90;;;;;;5053627;28;20634;-59
2022/07/22 05:14:22;;;;;;;7.30;2.93;;;17.60;99.90;;;;;;5053251;28;20225;-59
2022/07/22 05:16:50;;;;;;;7.33;3.33;;;17.70;99.90;;;;;;5056890;28;20232;-59
2022/07/22 05:19:19;;;;;;;5.97;3.10;;;17.70;99.90;;;;;;5055243;28;20720;-59
2022/07/22 05:21:47;;;;;;;7.17;3.20;;;17.80;99.90;;;;;;5053784;28;20630;-59
2022/07/22 05:24:15;;;;;;;8.10;2.87;;;17.80;99.90;;;;;;5055154;28;20220;-59
2022/07/22 05:26:44;;;;;;;4.27;2.47;;;17.80;99.90;;;;;;5053647;28;20224;-59
2022/07/22 05:29:12;;;;;;;6.33;2.70;;;17.80;99.90;;;;;;5053374;28;20224;-60
2022/07/22 05:31:41;;;;;;;8.33;3.07;;;17.90;99.90;;;;;;5068935;28;20240;-59
2022/07/22 05:34:09;;;;;;;8.07;3.03;;;17.80;99.90;;;;;;5052842;28;20231;-59
2022/07/22 05:36:45;;;;;;;9.80;2.90;;;17.80;99.90;;;;;;5052601;28;20585;-59
2022/07/22 05:39:14;;;;;;;8.40;2.80;;;17.90;99.90;;;;;;5044904;28;20236;-59
2022/07/22 05:41:42;;;;;;;7.63;3.07;;;18.00;99.90;;;;;;5071427;28;20226;-59
2022/07/22 05:44:11;;;;;;;11.93;3.47;;;18.20;99.90;;;;;;5069282;28;20211;-59
2022/07/22 05:46:40;;;;;;;7.10;2.93;;;18.30;99.90;;;;;;5052841;28;20637;-60
2022/07/22 05:49:09;;;;;;;10.13;2.80;;;18.40;99.90;;;;;;5053404;28;20279;-60
2022/07/22 05:51:50;;;;;;;8.60;3.10;;;18.30;99.90;;;;;;5045718;28;20609;-59
2022/07/22 05:54:18;;;;;;;7.30;2.77;;;18.20;99.90;;;;;;5050478;28;20237;-59
2022/07/22 05:56:47;;;;;;;7.93;2.77;;;18.10;99.90;;;;;;5053803;28;20240;-59
2022/07/22 05:59:16;;;;;;;15.07;3.13;;;18.10;99.90;;;;;;5053243;28;20229;-59
2022/07/22 06:01:45;;;;;;;10.23;2.67;;;18.10;99.90;;;;;;5051644;28;20723;-59
2022/07/22 06:04:33;;;;;;;9.07;2.97;;;18.10;99.90;;;;;;5052830;28;20212;-59
2022/07/22 06:07:02;;;;;;;9.50;3.13;;;18.10;99.90;;;;;;5069744;28;20737;-59
2022/07/22 06:09:30;;;;;;;8.87;2.83;;;18.10;99.90;;;;;;5047142;28;20226;-59
2022/07/22 06:11:58;;;;;;;9.37;2.60;;;18.10;99.90;;;;;;5051819;28;20229;-60
2022/07/22 06:14:27;;;;;;;13.53;3.30;;;18.20;99.90;;;;;;5051137;28;20225;-59
2022/07/22 06:16:56;;;;;;;10.70;2.60;;;18.20;99.90;;;;;;5052422;28;20225;-60
2022/07/22 06:19:25;;;;;;;10.40;3.00;;;18.30;99.90;;;;;;5046795;28;20234;-59
2022/07/22 06:21:53;;;;;;;10.57;3.03;;;18.30;99.90;;;;;;5054119;28;20259;-60
2022/07/22 06:24:22;;;;;;;10.23;2.77;;;18.40;99.90;;;;;;5052598;28;20596;-60
2022/07/22 06:26:54;;;;;;;7.80;2.80;;;18.40;99.90;;;;;;5052312;28;20275;-60
2022/07/22 06:29:22;;;;;;;11.00;2.97;;;18.40;99.90;;;;;;5053954;28;20220;-60
2022/07/22 06:31:50;;;;;;;9.10;2.40;;;18.40;99.90;;;;;;5052103;28;20283;-60
2022/07/22 06:34:20;;;;;;;8.83;3.00;;;18.40;99.90;;;;;;5052431;28;20236;-60
2022/07/22 06:36:59;;;;;;;12.57;3.00;;;18.50;99.90;;;;;;5052382;28;20666;-60
2022/07/22 06:39:28;;;;;;;9.70;3.00;;;18.50;99.90;;;;;;5052118;28;20229;-60
2022/07/22 06:42:17;;;;;;;12.07;3.27;;;18.60;99.90;;;;;;5051910;28;20257;-60
2022/07/22 06:45:09;;;;;;;8.87;2.70;;;18.60;99.90;;;;;;5057685;28;20233;-60
2022/07/22 06:48:01;;;;;;;9.50;2.87;;;18.70;99.90;;;;;;5052985;28;20230;-61
2022/07/22 06:50:36;;;;;;;8.30;2.47;;;18.80;99.90;;;;;;5068894;28;20230;-60
2022/07/22 06:53:12;;;;;;;13.13;3.20;;;18.80;99.90;;;;;;5050456;28;20245;-60
2022/07/22 06:55:41;;;;;;;10.50;2.87;;;18.90;99.90;;;;;;5051140;28;20299;-60
2022/07/22 06:58:12;;;;;;;10.00;2.47;;;18.90;99.90;;;;;;5067704;28;20263;-61
2022/07/22 07:00:40;;;;;;;8.17;2.50;;;19.00;99.90;;;;;;5051822;28;20582;-61
2022/07/22 07:03:40;;;;;;;11.30;2.90;;;19.10;99.90;;;;;;5040873;28;20225;-60
2022/07/22 07:06:12;;;;;;;10.70;2.90;;;19.10;99.90;;;;;;5067384;28;20219;-61
2022/07/22 07:09:00;;;;;;;9.97;2.70;;;19.10;99.90;;;;;;5055356;28;20253;-61
2022/07/22 07:11:29;;;;;;;9.37;2.83;;;19.10;99.90;;;;;;5051154;28;20230;-61
2022/07/22 07:13:58;;;;;;;8.73;2.40;;;19.10;99.90;;;;;;5050481;28;20263;-54
2022/07/22 07:16:26;;;;;;;12.53;3.20;;;19.20;99.90;;;;;;5052401;28;20235;-56
2022/07/22 07:18:55;;;;;;;11.70;2.70;;;19.30;99.90;;;;;;5050680;28;20256;-55
2022/07/22 07:21:25;;;;;;;11.17;2.90;;;19.40;99.90;;;;;;5050353;28;20699;-55
2022/07/22 07:23:53;;;;;;;9.83;2.50;;;19.40;99.90;;;;;;5050648;28;20578;-55
2022/07/22 07:26:24;;;;;;;8.53;2.50;;;19.50;99.90;;;;;;5051137;28;20246;-54
2022/07/22 07:28:52;;;;;;;12.10;3.00;;;19.40;99.90;;;;;;5052476;28;20231;-55
2022/07/22 07:31:36;;;;;;;7.67;2.37;;;19.50;99.90;;;;;;5067499;28;20243;-55
2022/07/22 07:34:12;;;;;;;8.97;2.03;;;19.50;99.90;;;;;;5051661;28;21045;-55
2022/07/22 07:36:42;;;;;;;8.57;2.50;;;19.50;99.90;;;;;;5052319;28;20281;-55
2022/07/22 07:39:12;;;;;;;9.27;2.30;;;19.50;99.90;;;;;;5073196;28;20317;-55
2022/07/22 07:41:41;;;;;;;10.50;2.20;;;19.60;99.90;;;;;;5055244;28;20241;-55
2022/07/22 07:44:12;;;;;;;8.33;2.37;;;19.60;99.90;;;;;;5051339;28;20272;-55
2022/07/22 07:46:41;;;;;;;9.97;2.00;;;19.70;99.90;;;;;;5048037;28;20232;-55
2022/07/22 07:49:09;;;;;;;10.43;2.40;;;19.70;99.90;;;;;;5059815;28;20236;-54
2022/07/22 07:51:38;;;;;;;8.67;2.20;;;19.80;99.90;;;;;;5051162;28;20277;-55
2022/07/22 07:54:07;;;;;;;5.77;1.80;;;19.80;99.90;;;;;;5051549;28;20222;-55
2022/07/22 07:56:38;;;;;;;7.40;1.60;;;19.90;99.90;;;;;;5050987;28;20258;-54
2022/07/22 07:59:07;;;;;;;9.30;2.07;;;20.00;99.90;;;;;;5046344;28;20228;-55
2022/07/22 08:01:54;;;;;;;7.63;2.37;;;20.00;99.90;;;;;;5052731;28;20242;-55
2022/07/22 08:04:27;;;;;;;7.13;2.30;;;20.00;99.90;;;;;;5050979;28;20258;-55
2022/07/22 08:07:13;;;;;;;10.47;2.43;;;20.00;99.90;;;;;;5065263;28;20230;-55
2022/07/22 08:09:45;;;;;;;7.20;1.93;;;20.00;99.90;;;;;;5063389;28;20254;-55
2022/07/22 08:12:42;;;;;;;5.17;2.07;;;20.10;99.90;;;;;;5055981;28;20238;-55
2022/07/22 08:15:30;;;;;;;6.67;1.70;;;20.20;99.90;;;;;;5056310;28;20227;-55
2022/07/22 08:18:02;;;;;;;7.07;1.73;;;20.00;99.90;;;;;;5056226;28;20310;-55
2022/07/22 08:20:32;;;;;;;4.87;1.70;;;20.00;99.90;;;;;;5054990;28;20239;-55
2022/07/22 08:23:00;;;;;;;7.50;2.07;;;19.80;99.90;;;;;;5055746;28;20706;-55
2022/07/22 08:25:33;;;;;;;4.60;1.50;;;19.60;99.90;;;;;;5054966;28;20303;-55
2022/07/22 08:28:01;;;;;;;5.47;1.60;;;19.50;99.90;;;;;;5056114;28;20752;-54
2022/07/22 08:30:29;;;;;;;4.07;1.50;;;19.40;99.90;;;;;;5056501;28;20652;-55
2022/07/22 08:32:59;;;;;;;8.20;1.90;;;19.50;99.90;;;;;;5054643;28;20238;-55
2022/07/22 08:35:28;;;;;;;6.57;2.23;;;19.60;99.90;;;;;;5057393;28;20265;-55
2022/07/22 08:37:56;;;;;;;5.57;1.77;;;19.60;99.90;;;;;;5061543;28;20321;-55
2022/07/22 08:40:26;;;;;;;4.90;1.77;;;19.90;99.90;;;;;;5055205;28;20235;-55
2022/07/22 08:42:57;;;;;;;7.00;1.73;;;20.00;99.90;;;;;;5054466;28;20226;-55
2022/07/22 08:45:26;;;;;;;5.07;1.67;;;20.30;99.90;;;;;;5060878;28;20256;-55
2022/07/22 08:47:54;;;;;;;6.73;1.90;;;20.40;99.90;;;;;;5054943;28;20250;-55
2022/07/22 08:50:35;;;;;;;6.73;1.70;;;20.50;99.90;;;;;;5058864;28;20225;-55
2022/07/22 08:53:23;;;;;;;3.60;1.50;;;20.60;99.90;;;;;;5059693;28;20332;-54
2022/07/22 08:55:55;;;;;;;4.60;1.73;;;20.70;99.90;;;;;;5056052;28;20267;-55
2022/07/22 08:58:24;;;;;;;4.13;1.60;;;20.70;99.90;;;;;;5054178;28;20235;-55
2022/07/22 09:01:07;;;;;;;7.17;1.57;;;20.80;99.90;;;;;;5052130;28;20280;-54
2022/07/22 09:03:46;;;;;;;6.93;1.80;;;20.80;99.90;;;;;;5051875;28;20694;-54
2022/07/22 09:06:15;;;;;;;7.80;1.70;;;20.80;99.90;;;;;;5070682;28;20223;-55
2022/07/22 09:08:54;;;;;;;6.13;1.67;;;20.70;99.90;;;;;;5057955;28;20624;-55
2022/07/22 09:11:42;;;;;;;7.43;1.70;;;20.60;99.90;;;;;;5054651;28;20224;-55
2022/07/22 09:14:48;;;;;;;5.70;1.60;;;20.30;99.90;;;;;;5053340;28;20230;-55
2022/07/22 09:17:38;;;;;;;4.87;1.80;;;20.00;99.90;;;;;;5049073;28;20698;-56
2022/07/22 09:20:26;;;;;;;6.63;1.83;;;20.00;99.90;;;;;;5052006;28;20239;-54
2022/07/22 09:23:17;;;;;;;5.27;1.70;;;20.00;99.90;;;;;;5039052;28;20223;-55
2022/07/22 09:25:46;;;;;;;5.27;1.60;;;20.20;99.90;;;;;;5048522;28;20231;-56
2022/07/22 09:28:56;;;;;;;5.27;1.63;;;20.20;99.90;;;;;;5048732;28;20231;-55
2022/07/22 09:31:33;;;;;;;6.40;1.63;;;20.40;99.90;;;;;;5052086;28;20246;-55
2022/07/22 09:34:36;;;;;;;7.33;1.97;;;20.70;99.90;;;;;;5050660;28;20235;-56
2022/07/22 09:37:15;;;;;;;5.83;1.63;;;20.70;99.90;;;;;;5048865;28;20326;-55
2022/07/22 09:39:43;;;;;;;5.23;1.57;;;20.80;99.90;;;;;;5048810;28;20686;-54
2022/07/22 09:42:16;;;;;;;6.10;1.53;;;20.90;99.90;;;;;;5082394;28;20831;-55
2022/07/22 09:44:44;;;;;;;4.63;1.30;;;21.00;99.90;;;;;;5054740;28;20227;-56
2022/07/22 09:47:32;;;;;;;6.00;1.40;;;21.10;99.90;;;;;;5053008;28;20257;-55
2022/07/22 09:50:31;;;;;;;13.03;2.00;;;21.20;99.90;;;;;;5054615;28;20230;-55
2022/07/22 09:53:22;;;;;;;6.40;1.63;;;21.30;99.90;;;;;;5058261;28;20211;-55
2022/07/22 09:56:05;;;;;;;4.77;1.93;;;21.30;99.90;;;;;;5052168;28;20235;-55
2022/07/22 09:58:34;;;;;;;4.57;1.30;;;21.30;99.90;;;;;;5057777;28;20239;-54
2022/07/22 10:01:08;;;;;;;4.97;1.63;;;21.40;99.90;;;;;;5056241;28;20259;-55
2022/07/22 10:03:43;;;;;;;3.73;1.37;;;21.40;99.90;;;;;;5056047;28;20264;-55
2022/07/22 10:06:11;;;;;;;6.77;1.60;;;21.60;99.90;;;;;;5048658;28;20254;-55
2022/07/22 10:08:42;;;;;;;5.13;1.47;;;21.90;99.90;;;;;;5052449;28;20239;-56
2022/07/22 10:11:10;;;;;;;4.53;1.50;;;22.20;99.90;;;;;;5046024;28;20706;-55
2022/07/22 10:13:41;;;;;;;7.53;1.50;;;22.50;99.90;;;;;;5052561;28;20231;-55
2022/07/22 10:16:12;;;;;;;4.23;1.23;;;22.60;99.90;;;;;;5054069;28;20684;-55
2022/07/22 10:18:46;;;;;;;3.23;1.20;;;22.40;99.90;;;;;;5052526;28;20235;-55
2022/07/22 10:21:17;;;;;;;6.03;1.50;;;22.40;99.90;;;;;;5052722;28;20261;-55
2022/07/22 10:24:07;;;;;;;3.37;1.10;;;22.40;99.90;;;;;;5052614;28;20232;-55
2022/07/22 10:26:51;;;;;;;6.10;1.53;;;22.30;99.90;;;;;;5052376;28;20220;-55
2022/07/22 10:29:30;;;;;;;4.00;1.40;;;22.00;99.90;;;;;;5047381;28;20226;-55
2022/07/22 10:32:24;;;;;;;5.03;1.20;;;21.90;99.90;;;;;;5052543;28;20259;-55
2022/07/22 10:35:23;;;;;;;5.33;1.50;;;21.80;99.90;;;;;;5054011;28;20691;-54
2022/07/22 10:37:55;;;;;;;4.80;1.20;;;21.70;99.90;;;;;;5057582;28;20246;-55
2022/07/22 10:40:25;;;;;;;4.57;1.37;;;21.60;99.90;;;;;;5053311;28;20746;-55
2022/07/22 10:43:21;;;;;;;3.23;1.20;;;21.70;99.90;;;;;;5053593;28;20219;-54
2022/07/22 10:45:51;;;;;;;5.23;1.30;;;21.50;99.90;;;;;;5053731;28;20235;-55
2022/07/22 10:48:24;;;;;;;5.33;1.60;;;21.30;99.90;;;;;;5053779;28;20714;-54
2022/07/22 10:51:05;;;;;;;7.27;1.63;;;21.30;99.90;;;;;;5052646;28;20325;-55
2022/07/22 10:53:44;;;;;;;5.30;1.87;;;21.10;99.90;;;;;;5048407;28;20702;-55
2022/07/22 10:56:26;;;;;;;6.10;1.80;;;21.10;99.90;;;;;;5048138;28;20275;-54
2022/07/22 10:59:10;;;;;;;7.63;1.63;;;20.90;99.90;;;;;;5049771;28;20224;-55
2022/07/22 11:01:40;;;;;;;5.80;1.60;;;21.20;99.90;;;;;;5048581;28;20263;-54
2022/07/22 11:04:14;;;;;;;7.60;1.40;;;21.10;99.90;;;;;;5046700;28;20266;-54
2022/07/22 11:06:48;;;;;;;4.50;1.30;;;21.20;99.90;;;;;;5044616;28;20687;-55
2022/07/22 11:09:18;;;;;;;5.43;1.53;;;21.00;99.90;;;;;;5055848;28;20313;-55
2022/07/22 11:11:49;;;;;;;7.30;1.77;;;21.00;99.90;;;;;;5053089;28;20219;-59
2022/07/22 11:14:24;;;;;;;5.97;1.47;;;20.80;99.90;;;;;;5050617;28;20234;-55
2022/07/22 11:16:53;;;;;;;5.10;1.93;;;20.50;99.90;;;;;;5052858;28;20241;-55
2022/07/22 11:19:23;;;;;;;5.20;1.70;;;20.60;99.90;;;;;;5052368;28;20285;-55
2022/07/22 11:21:54;;;;;;;8.10;1.60;;;20.70;99.90;;;;;;5051709;28;20545;-54
2022/07/22 11:24:23;;;;;;;4.53;1.47;;;20.80;99.90;;;;;;5052894;28;20262;-55
2022/07/22 11:26:52;;;;;;;8.00;1.57;;;21.00;99.90;;;;;;5052513;28;20749;-55
2022/07/22 11:29:26;;;;;;;5.20;1.23;;;21.10;99.90;;;;;;5052785;28;20741;-55
2022/07/22 11:31:55;;;;;;;4.07;1.63;;;21.10;99.90;;;;;;5052247;28;20646;-55
2022/07/22 11:34:26;;;;;;;5.53;1.50;;;21.00;99.90;;;;;;5052736;28;20319;-55
2022/07/22 11:36:57;;;;;;;4.60;1.57;;;21.10;99.90;;;;;;5052437;28;20231;-55
2022/07/22 11:39:27;;;;;;;3.80;1.50;;;21.30;99.90;;;;;;5051303;28;20306;-55
2022/07/22 11:41:57;;;;;;;4.87;1.60;;;21.40;99.90;;;;;;5051945;28;20227;-55
2022/07/22 11:44:26;;;;;;;6.60;1.60;;;21.40;99.90;;;;;;5050933;28;20285;-55
2022/07/22 11:46:58;;;;;;;5.83;1.47;;;21.40;99.90;;;;;;5050171;28;20258;-55
2022/07/22 11:49:28;;;;;;;4.90;1.40;;;21.40;99.90;;;;;;5048032;28;20223;-55
2022/07/22 11:51:58;;;;;;;4.60;1.43;;;21.40;99.90;;;;;;5042757;28;20251;-54
2022/07/22 11:54:26;;;;;;;7.73;1.50;;;21.50;99.90;;;;;;5040390;28;20224;-55
2022/07/22 11:56:56;;;;;;;4.70;1.50;;;21.50;99.90;;;;;;5052239;28;20235;-55
2022/07/22 11:59:25;;;;;;;5.10;1.70;;;21.50;99.90;;;;;;5052865;28;20690;-54
2022/07/22 12:01:53;;;;;;;4.77;1.63;;;21.40;99.90;;;;;;5052087;28;20324;-55
2022/07/22 12:04:24;;;;;;;6.17;1.80;;;21.30;99.90;;;;;;5052608;28;20234;-55
2022/07/22 12:06:54;;;;;;;4.93;1.63;;;21.00;99.90;;;;;;5052770;28;20235;-54
2022/07/22 12:09:25;;;;;;;4.40;1.17;;;21.00;99.90;;;;;;5057636;28;20235;-55
2022/07/22 12:11:57;;;;;;;7.20;1.60;;;20.90;99.90;;;;;;5052235;28;20230;-55
2022/07/22 12:14:28;;;;;;;6.67;1.47;;;21.10;99.90;;;;;;5052468;28;20587;-55
2022/07/22 12:16:58;;;;;;;5.67;1.50;;;21.40;99.90;;;;;;5052115;28;20281;-54
2022/07/22 12:19:30;;;;;;;3.87;1.50;;;21.80;99.90;;;;;;5050590;28;20285;-55
2022/07/22 12:22:00;;;;;;;5.07;1.37;;;22.20;99.90;;;;;;5045292;28;20235;-55
2022/07/22 12:24:32;;;;;;;5.13;1.47;;;22.50;99.90;;;;;;5052099;28;20289;-55
2022/07/22 12:27:01;;;;;;;11.57;1.60;;;22.20;99.90;;;;;;5052071;28;20310;-55
2022/07/22 12:29:31;;;;;;;5.10;1.67;;;21.80;99.90;;;;;;5051684;28;20219;-55
2022/07/22 12:32:01;;;;;;;3.57;1.30;;;21.80;99.90;;;;;;5051643;28;20451;-56
2022/07/22 12:34:31;;;;;;;6.73;1.30;;;21.80;99.90;;;;;;5052150;28;20263;-55
2022/07/22 12:37:02;;;;;;;14.00;2.20;;;22.00;99.90;;;;;;5052783;28;20619;-55
2022/07/22 12:39:31;;;;;;;6.07;1.67;;;21.80;99.90;;;;;;5051108;28;20227;-55
2022/07/22 12:41:59;;;;;;;6.40;1.60;;;21.70;99.90;;;;;;5039316;28;20233;-55
2022/07/22 12:44:28;;;;;;;5.23;1.20;;;21.60;99.90;;;;;;5051759;28;20237;-55
2022/07/22 12:47:02;;;;;;;5.30;1.70;;;21.70;99.90;;;;;;5052001;28;20239;-55
2022/07/22 12:49:30;;;;;;;3.87;1.20;;;21.80;99.90;;;;;;5051755;28;20232;-55
2022/07/22 12:52:10;;;;;;;5.90;2.07;;;21.80;99.90;;;;;;5054589;28;20736;-55
2022/07/22 12:54:41;;;;;;;5.53;1.30;;;21.90;99.90;;;;;;5051323;28;20316;-55
2022/07/22 12:57:10;;;;;;;3.93;1.47;;;21.80;99.90;;;;;;5055637;28;20242;-55
2022/07/22 12:59:38;;;;;;;3.37;1.10;;;21.80;99.90;;;;;;5055997;28;20235;-54
2022/07/22 13:02:07;;;;;;;3.60;1.10;;;22.10;99.90;;;;;;5054913;28;20228;-54
2022/07/22 13:04:35;;;;;;;4.10;1.07;;;22.00;99.90;;;;;;5055344;28;20243;-55
2022/07/22 13:07:03;;;;;;;3.93;1.30;;;22.10;99.90;;;;;;5055993;28;20228;-55
2022/07/22 13:09:32;;;;;;;6.57;1.30;;;22.50;99.90;;;;;;5060327;28;20702;-55